sensor_id;sensor_type;location;lat;lon;timestamp;pressure;altitude;pressure_sealevel;temperature;humidity
54978;BME280;40873;47.522;19.106;2022-11-15T00:01:18;100879.25;;;4.99;100.00
54978;BME280;40873;47.522;19.106;2022-11-15T00:03:45;100882.47;;;5.07;100.00
54978;BME280;40873;47.522;19.106;2022-11-15T00:06:12;100886.00;;;5.06;100.00
54978;BME280;40873;47.522;19.106;2022-11-15T00:08:39;100886.16;;;5.02;100.00
54978;BME280;40873;47.522;19.106;2022-11-15T00:11:09;100884.41;;;5.01;100.00
54978;BME280;40873;47.522;19.106;2022-11-15T00:13:36;100879.28;;;4.98;100.00
54978;BME280;40873;47.522;19.106;2022-11-15T00:16:03;100878.34;;;5.00;100.00
54978;BME280;40873;47.522;19.106;2022-11-15T00:18:30;100887.63;;;5.10;100.00
54978;BME280;40873;47.522;19.106;2022-11-15T00:21:10;100883.22;;;5.12;100.00
54978;BME280;40873;47.522;19.106;2022-11-15T00:23:38;100881.00;;;4.99;100.00
54978;BME280;40873;47.522;19.106;2022-11-15T00:26:06;100879.19;;;5.01;100.00
54978;BME280;40873;47.522;19.106;2022-11-15T00:28:33;100872.25;;;5.00;100.00
54978;BME280;40873;47.522;19.106;2022-11-15T00:31:05;100875.00;;;4.95;100.00
54978;BME280;40873;47.522;19.106;2022-11-15T00:33:33;100879.47;;;4.91;100.00
54978;BME280;40873;47.522;19.106;2022-11-15T00:36:06;100871.38;;;4.99;100.00
54978;BME280;40873;47.522;19.106;2022-11-15T00:38:34;100873.31;;;4.92;100.00
54978;BME280;40873;47.522;19.106;2022-11-15T00:41:03;100870.69;;;4.94;100.00
54978;BME280;40873;47.522;19.106;2022-11-15T00:43:35;100864.44;;;4.98;100.00
54978;BME280;40873;47.522;19.106;2022-11-15T00:46:03;100869.81;;;4.93;100.00
54978;BME280;40873;47.522;19.106;2022-11-15T00:48:29;100857.56;;;4.95;100.00
54978;BME280;40873;47.522;19.106;2022-11-15T00:50:57;100853.94;;;5.00;100.00
54978;BME280;40873;47.522;19.106;2022-11-15T00:53:24;100856.53;;;5.01;100.00
54978;BME280;40873;47.522;19.106;2022-11-15T00:55:51;100852.09;;;5.03;100.00
54978;BME280;40873;47.522;19.106;2022-11-15T00:58:19;100844.25;;;5.03;100.00
54978;BME280;40873;47.522;19.106;2022-11-15T01:00:46;100847.06;;;4.97;100.00
54978;BME280;40873;47.522;19.106;2022-11-15T01:03:13;100849.66;;;4.97;100.00
54978;BME280;40873;47.522;19.106;2022-11-15T01:05:40;100844.31;;;5.02;100.00
54978;BME280;40873;47.522;19.106;2022-11-15T01:08:12;100845.16;;;5.02;100.00
54978;BME280;40873;47.522;19.106;2022-11-15T01:10:39;100843.47;;;5.01;100.00
54978;BME280;40873;47.522;19.106;2022-11-15T01:13:06;100846.16;;;4.98;100.00
54978;BME280;40873;47.522;19.106;2022-11-15T01:15:33;100838.22;;;5.01;100.00
54978;BME280;40873;47.522;19.106;2022-11-15T01:18:00;100843.31;;;5.06;100.00
54978;BME280;40873;47.522;19.106;2022-11-15T01:20:27;100832.78;;;5.09;100.00
54978;BME280;40873;47.522;19.106;2022-11-15T01:22:54;100832.84;;;5.06;100.00
54978;BME280;40873;47.522;19.106;2022-11-15T01:25:21;100827.56;;;5.07;100.00
54978;BME280;40873;47.522;19.106;2022-11-15T01:27:48;100822.44;;;5.04;100.00
54978;BME280;40873;47.522;19.106;2022-11-15T01:30:15;100818.72;;;5.11;100.00
54978;BME280;40873;47.522;19.106;2022-11-15T01:32:42;100823.16;;;5.09;100.00
54978;BME280;40873;47.522;19.106;2022-11-15T01:35:09;100818.00;;;5.08;100.00
54978;BME280;40873;47.522;19.106;2022-11-15T01:37:36;100822.19;;;5.12;100.00
54978;BME280;40873;47.522;19.106;2022-11-15T01:40:03;100817.81;;;5.12;100.00
54978;BME280;40873;47.522;19.106;2022-11-15T01:42:30;100821.41;;;5.10;100.00
54978;BME280;40873;47.522;19.106;2022-11-15T01:44:57;100825.78;;;5.09;100.00
54978;BME280;40873;47.522;19.106;2022-11-15T01:47:28;100822.25;;;5.10;100.00
54978;BME280;40873;47.522;19.106;2022-11-15T01:50:10;100809.97;;;5.12;100.00
54978;BME280;40873;47.522;19.106;2022-11-15T01:52:39;100822.31;;;5.09;100.00
54978;BME280;40873;47.522;19.106;2022-11-15T01:55:17;100820.53;;;5.09;100.00
54978;BME280;40873;47.522;19.106;2022-11-15T01:57:47;100817.16;;;5.06;100.00
54978;BME280;40873;47.522;19.106;2022-11-15T02:00:15;100812.69;;;5.09;100.00
54978;BME280;40873;47.522;19.106;2022-11-15T02:02:42;100811.00;;;5.07;100.00
54978;BME280;40873;47.522;19.106;2022-11-15T02:05:10;100804.84;;;5.09;100.00
54978;BME280;40873;47.522;19.106;2022-11-15T02:07:37;100798.66;;;5.12;100.00
54978;BME280;40873;47.522;19.106;2022-11-15T02:10:08;100801.28;;;5.12;100.00
54978;BME280;40873;47.522;19.106;2022-11-15T02:12:36;100794.22;;;5.14;100.00
54978;BME280;40873;47.522;19.106;2022-11-15T02:15:05;100791.59;;;5.15;100.00
54978;BME280;40873;47.522;19.106;2022-11-15T02:34:19;100791.44;;;5.20;100.00
54978;BME280;40873;47.522;19.106;2022-11-15T02:37:07;100777.69;;;5.13;100.00
54978;BME280;40873;47.522;19.106;2022-11-15T02:42:50;100778.53;;;5.14;100.00
54978;BME280;40873;47.522;19.106;2022-11-15T02:45:50;100775.97;;;5.12;100.00
54978;BME280;40873;47.522;19.106;2022-11-15T02:48:19;100774.16;;;5.14;100.00
54978;BME280;40873;47.522;19.106;2022-11-15T02:50:48;100775.06;;;5.13;100.00
54978;BME280;40873;47.522;19.106;2022-11-15T02:53:15;100775.41;;;5.03;100.00
54978;BME280;40873;47.522;19.106;2022-11-15T02:55:50;100774.47;;;5.05;100.00
54978;BME280;40873;47.522;19.106;2022-11-15T02:58:28;100775.41;;;5.03;100.00
54978;BME280;40873;47.522;19.106;2022-11-15T03:04:02;100766.63;;;5.05;100.00
54978;BME280;40873;47.522;19.106;2022-11-15T03:06:58;100771.00;;;5.05;100.00
54978;BME280;40873;47.522;19.106;2022-11-15T03:09:34;100787.47;;;5.08;100.00
54978;BME280;40873;47.522;19.106;2022-11-15T03:12:07;100776.03;;;5.11;100.00
54978;BME280;40873;47.522;19.106;2022-11-15T03:14:56;100770.81;;;5.11;100.00
54978;BME280;40873;47.522;19.106;2022-11-15T03:19:57;100772.44;;;5.13;100.00
54978;BME280;40873;47.522;19.106;2022-11-15T03:22:27;100761.84;;;5.18;100.00
54978;BME280;40873;47.522;19.106;2022-11-15T03:24:59;100760.09;;;5.18;100.00
54978;BME280;40873;47.522;19.106;2022-11-15T03:27:33;100763.69;;;5.14;100.00
54978;BME280;40873;47.522;19.106;2022-11-15T03:30:06;100759.56;;;5.07;100.00
54978;BME280;40873;47.522;19.106;2022-11-15T03:33:02;100756.94;;;5.07;100.00
54978;BME280;40873;47.522;19.106;2022-11-15T03:35:37;100750.78;;;5.10;100.00
54978;BME280;40873;47.522;19.106;2022-11-15T03:38:14;100749.09;;;5.09;100.00
54978;BME280;40873;47.522;19.106;2022-11-15T03:40:46;100748.22;;;5.08;100.00
54978;BME280;40873;47.522;19.106;2022-11-15T03:46:02;100747.41;;;5.06;100.00
54978;BME280;40873;47.522;19.106;2022-11-15T03:48:39;100752.78;;;5.02;100.00
54978;BME280;40873;47.522;19.106;2022-11-15T03:51:08;100751.97;;;5.00;100.00
54978;BME280;40873;47.522;19.106;2022-11-15T03:53:35;100752.13;;;4.95;100.00
54978;BME280;40873;47.522;19.106;2022-11-15T03:56:02;100737.97;;;5.02;100.00
54978;BME280;40873;47.522;19.106;2022-11-15T03:58:29;100743.25;;;4.99;100.00
54978;BME280;40873;47.522;19.106;2022-11-15T04:00:56;100730.06;;;5.04;100.00
54978;BME280;40873;47.522;19.106;2022-11-15T04:03:23;100726.59;;;5.03;100.00
54978;BME280;40873;47.522;19.106;2022-11-15T04:05:50;100718.75;;;5.03;100.00
54978;BME280;40873;47.522;19.106;2022-11-15T04:08:17;100716.19;;;5.02;100.00
54978;BME280;40873;47.522;19.106;2022-11-15T04:10:44;100709.94;;;5.06;100.00
54978;BME280;40873;47.522;19.106;2022-11-15T04:13:11;100706.53;;;5.04;100.00
54978;BME280;40873;47.522;19.106;2022-11-15T04:15:38;100693.44;;;5.04;100.00
54978;BME280;40873;47.522;19.106;2022-11-15T04:18:05;100695.22;;;5.03;100.00
54978;BME280;40873;47.522;19.106;2022-11-15T04:20:32;100690.63;;;5.10;100.00
54978;BME280;40873;47.522;19.106;2022-11-15T04:23:21;100703.84;;;5.05;100.00
54978;BME280;40873;47.522;19.106;2022-11-15T04:26:18;100703.78;;;5.07;100.00
54978;BME280;40873;47.522;19.106;2022-11-15T04:28:46;100708.28;;;5.03;100.00
54978;BME280;40873;47.522;19.106;2022-11-15T04:31:31;100716.25;;;4.99;100.00
54978;BME280;40873;47.522;19.106;2022-11-15T04:33:58;100715.31;;;5.01;100.00
54978;BME280;40873;47.522;19.106;2022-11-15T04:36:26;100715.41;;;4.98;100.00
54978;BME280;40873;47.522;19.106;2022-11-15T04:39:11;100710.59;;;4.84;100.00
54978;BME280;40873;47.522;19.106;2022-11-15T04:41:38;100704.22;;;4.93;100.00
54978;BME280;40873;47.522;19.106;2022-11-15T04:44:05;100704.22;;;4.94;100.00
54978;BME280;40873;47.522;19.106;2022-11-15T04:46:32;100695.41;;;4.97;100.00
54978;BME280;40873;47.522;19.106;2022-11-15T04:48:59;100698.72;;;5.02;100.00
54978;BME280;40873;47.522;19.106;2022-11-15T04:51:26;100694.59;;;4.95;100.00
54978;BME280;40873;47.522;19.106;2022-11-15T04:53:53;100695.28;;;5.00;100.00
54978;BME280;40873;47.522;19.106;2022-11-15T04:56:20;100688.66;;;4.90;100.00
54978;BME280;40873;47.522;19.106;2022-11-15T04:58:49;100685.13;;;4.91;100.00
54978;BME280;40873;47.522;19.106;2022-11-15T05:01:17;100691.13;;;4.94;100.00
54978;BME280;40873;47.522;19.106;2022-11-15T05:03:44;100688.28;;;5.01;100.00
54978;BME280;40873;47.522;19.106;2022-11-15T05:06:30;100682.19;;;5.02;100.00
54978;BME280;40873;47.522;19.106;2022-11-15T05:08:57;100680.69;;;4.93;100.00
54978;BME280;40873;47.522;19.106;2022-11-15T05:11:24;100679.66;;;4.99;100.00
54978;BME280;40873;47.522;19.106;2022-11-15T05:13:51;100685.53;;;5.05;100.00
54978;BME280;40873;47.522;19.106;2022-11-15T05:16:18;100681.94;;;5.09;100.00
54978;BME280;40873;47.522;19.106;2022-11-15T05:18:45;100681.16;;;5.06;100.00
54978;BME280;40873;47.522;19.106;2022-11-15T05:21:14;100684.50;;;5.11;100.00
54978;BME280;40873;47.522;19.106;2022-11-15T05:23:41;100687.16;;;5.09;100.00
54978;BME280;40873;47.522;19.106;2022-11-15T05:26:09;100688.88;;;5.10;100.00
54978;BME280;40873;47.522;19.106;2022-11-15T05:28:37;100694.06;;;5.12;100.00
54978;BME280;40873;47.522;19.106;2022-11-15T05:31:06;100694.16;;;5.09;100.00
54978;BME280;40873;47.522;19.106;2022-11-15T05:33:35;100690.06;;;5.27;100.00
54978;BME280;40873;47.522;19.106;2022-11-15T05:36:07;100686.84;;;5.18;100.00
54978;BME280;40873;47.522;19.106;2022-11-15T05:38:36;100691.19;;;5.19;100.00
54978;BME280;40873;47.522;19.106;2022-11-15T05:41:04;100690.19;;;5.23;100.00
54978;BME280;40873;47.522;19.106;2022-11-15T05:43:33;100686.53;;;5.28;100.00
54978;BME280;40873;47.522;19.106;2022-11-15T05:46:04;100696.06;;;5.30;100.00
54978;BME280;40873;47.522;19.106;2022-11-15T05:48:32;100683.72;;;5.34;100.00
54978;BME280;40873;47.522;19.106;2022-11-15T05:51:01;100696.66;;;5.38;100.00
54978;BME280;40873;47.522;19.106;2022-11-15T05:53:29;100694.75;;;5.43;100.00
54978;BME280;40873;47.522;19.106;2022-11-15T05:55:57;100683.38;;;5.44;100.00
54978;BME280;40873;47.522;19.106;2022-11-15T05:58:24;100686.06;;;5.43;100.00
54978;BME280;40873;47.522;19.106;2022-11-15T06:00:51;100676.44;;;5.43;100.00
54978;BME280;40873;47.522;19.106;2022-11-15T06:03:18;100675.53;;;5.44;100.00
54978;BME280;40873;47.522;19.106;2022-11-15T06:05:45;100668.47;;;5.46;100.00
54978;BME280;40873;47.522;19.106;2022-11-15T06:08:12;100668.41;;;5.48;100.00
54978;BME280;40873;47.522;19.106;2022-11-15T06:10:39;100666.63;;;5.50;100.00
54978;BME280;40873;47.522;19.106;2022-11-15T06:13:05;100669.78;;;5.60;100.00
54978;BME280;40873;47.522;19.106;2022-11-15T06:15:33;100669.97;;;5.54;100.00
54978;BME280;40873;47.522;19.106;2022-11-15T06:18:03;100674.94;;;5.61;100.00
54978;BME280;40873;47.522;19.106;2022-11-15T06:20:30;100674.94;;;5.61;100.00
54978;BME280;40873;47.522;19.106;2022-11-15T06:23:03;100672.13;;;5.67;100.00
54978;BME280;40873;47.522;19.106;2022-11-15T06:25:31;100667.66;;;5.69;100.00
54978;BME280;40873;47.522;19.106;2022-11-15T06:27:58;100672.03;;;5.70;100.00
54978;BME280;40873;47.522;19.106;2022-11-15T06:30:26;100673.75;;;5.70;100.00
54978;BME280;40873;47.522;19.106;2022-11-15T06:33:00;100678.69;;;5.79;100.00
54978;BME280;40873;47.522;19.106;2022-11-15T06:35:28;100692.63;;;5.80;100.00
54978;BME280;40873;47.522;19.106;2022-11-15T06:38:05;100695.19;;;5.81;100.00
54978;BME280;40873;47.522;19.106;2022-11-15T06:40:34;100676.88;;;5.81;100.00
54978;BME280;40873;47.522;19.106;2022-11-15T06:43:03;100675.03;;;5.83;100.00
54978;BME280;40873;47.522;19.106;2022-11-15T06:45:30;100675.88;;;5.85;100.00
54978;BME280;40873;47.522;19.106;2022-11-15T06:47:58;100672.19;;;5.89;100.00
54978;BME280;40873;47.522;19.106;2022-11-15T06:50:25;100668.94;;;5.83;100.00
54978;BME280;40873;47.522;19.106;2022-11-15T06:52:52;100682.75;;;5.88;100.00
54978;BME280;40873;47.522;19.106;2022-11-15T06:55:19;100671.28;;;5.92;100.00
54978;BME280;40873;47.522;19.106;2022-11-15T06:57:48;100680.84;;;5.93;100.00
54978;BME280;40873;47.522;19.106;2022-11-15T07:00:16;100678.16;;;5.94;100.00
54978;BME280;40873;47.522;19.106;2022-11-15T07:02:44;100668.63;;;5.93;100.00
54978;BME280;40873;47.522;19.106;2022-11-15T07:05:12;100672.88;;;5.96;100.00
54978;BME280;40873;47.522;19.106;2022-11-15T07:07:39;100669.41;;;5.95;100.00
54978;BME280;40873;47.522;19.106;2022-11-15T07:10:07;100669.47;;;5.94;100.00
54978;BME280;40873;47.522;19.106;2022-11-15T07:12:34;100673.78;;;5.95;100.00
54978;BME280;40873;47.522;19.106;2022-11-15T07:15:01;100668.47;;;5.96;100.00
54978;BME280;40873;47.522;19.106;2022-11-15T07:17:28;100664.00;;;6.00;100.00
54978;BME280;40873;47.522;19.106;2022-11-15T07:19:55;100671.59;;;6.08;100.00
54978;BME280;40873;47.522;19.106;2022-11-15T07:22:21;100672.38;;;6.10;100.00
54978;BME280;40873;47.522;19.106;2022-11-15T07:24:48;100670.59;;;6.10;100.00
54978;BME280;40873;47.522;19.106;2022-11-15T07:27:15;100661.50;;;6.20;100.00
54978;BME280;40873;47.522;19.106;2022-11-15T07:29:42;100652.72;;;6.21;100.00
54978;BME280;40873;47.522;19.106;2022-11-15T07:32:09;100663.84;;;6.28;100.00
54978;BME280;40873;47.522;19.106;2022-11-15T07:34:36;100659.50;;;6.27;100.00
54978;BME280;40873;47.522;19.106;2022-11-15T07:37:03;100656.69;;;6.31;100.00
54978;BME280;40873;47.522;19.106;2022-11-15T07:39:30;100659.22;;;6.35;100.00
54978;BME280;40873;47.522;19.106;2022-11-15T07:41:57;100663.53;;;6.36;100.00
54978;BME280;40873;47.522;19.106;2022-11-15T07:44:42;100663.25;;;6.43;100.00
54978;BME280;40873;47.522;19.106;2022-11-15T07:47:09;100663.13;;;6.46;100.00
54978;BME280;40873;47.522;19.106;2022-11-15T07:49:36;100668.25;;;6.49;100.00
54978;BME280;40873;47.522;19.106;2022-11-15T07:52:03;100658.56;;;6.51;100.00
54978;BME280;40873;47.522;19.106;2022-11-15T07:54:30;100653.94;;;6.58;100.00
54978;BME280;40873;47.522;19.106;2022-11-15T07:56:57;100652.25;;;6.57;100.00
54978;BME280;40873;47.522;19.106;2022-11-15T07:59:31;100648.69;;;6.58;100.00
54978;BME280;40873;47.522;19.106;2022-11-15T08:01:58;100653.88;;;6.59;100.00
54978;BME280;40873;47.522;19.106;2022-11-15T08:04:25;100655.78;;;6.56;100.00
54978;BME280;40873;47.522;19.106;2022-11-15T08:06:52;100655.34;;;6.67;100.00
54978;BME280;40873;47.522;19.106;2022-11-15T08:09:19;100650.78;;;6.72;100.00
54978;BME280;40873;47.522;19.106;2022-11-15T08:11:49;100648.75;;;6.78;100.00
54978;BME280;40873;47.522;19.106;2022-11-15T08:14:16;100645.44;;;6.75;100.00
54978;BME280;40873;47.522;19.106;2022-11-15T08:16:43;100638.41;;;6.75;100.00
54978;BME280;40873;47.522;19.106;2022-11-15T08:19:10;100635.59;;;6.80;100.00
54978;BME280;40873;47.522;19.106;2022-11-15T08:21:37;100625.03;;;6.81;100.00
54978;BME280;40873;47.522;19.106;2022-11-15T08:24:04;100628.78;;;6.76;100.00
54978;BME280;40873;47.522;19.106;2022-11-15T08:26:31;100621.88;;;6.73;100.00
54978;BME280;40873;47.522;19.106;2022-11-15T08:28:58;100625.53;;;6.69;100.00
54978;BME280;40873;47.522;19.106;2022-11-15T08:31:25;100612.22;;;6.74;100.00
54978;BME280;40873;47.522;19.106;2022-11-15T08:33:52;100611.28;;;6.76;100.00
54978;BME280;40873;47.522;19.106;2022-11-15T08:36:19;100612.97;;;6.77;100.00
54978;BME280;40873;47.522;19.106;2022-11-15T08:38:46;100608.41;;;6.82;100.00
54978;BME280;40873;47.522;19.106;2022-11-15T08:41:23;100608.94;;;6.91;100.00
54978;BME280;40873;47.522;19.106;2022-11-15T08:43:51;100601.78;;;6.94;100.00
54978;BME280;40873;47.522;19.106;2022-11-15T08:46:18;100603.31;;;7.00;100.00
54978;BME280;40873;47.522;19.106;2022-11-15T08:48:45;100599.75;;;7.01;100.00
54978;BME280;40873;47.522;19.106;2022-11-15T08:51:12;100605.00;;;7.01;100.00
54978;BME280;40873;47.522;19.106;2022-11-15T08:53:39;100595.25;;;7.04;100.00
54978;BME280;40873;47.522;19.106;2022-11-15T08:56:08;100598.84;;;7.02;100.00
54978;BME280;40873;47.522;19.106;2022-11-15T08:58:36;100598.06;;;7.00;100.00
54978;BME280;40873;47.522;19.106;2022-11-15T09:01:03;100597.22;;;6.99;100.00
54978;BME280;40873;47.522;19.106;2022-11-15T09:03:31;100600.50;;;7.04;100.00
54978;BME280;40873;47.522;19.106;2022-11-15T09:05:59;100596.97;;;7.05;100.00
54978;BME280;40873;47.522;19.106;2022-11-15T09:08:30;100598.72;;;7.05;100.00
54978;BME280;40873;47.522;19.106;2022-11-15T09:11:13;100597.41;;;7.15;100.00
54978;BME280;40873;47.522;19.106;2022-11-15T09:13:41;100600.63;;;7.22;100.00
54978;BME280;40873;47.522;19.106;2022-11-15T09:16:08;100583.97;;;7.23;100.00
54978;BME280;40873;47.522;19.106;2022-11-15T09:18:35;100585.41;;;7.30;100.00
54978;BME280;40873;47.522;19.106;2022-11-15T09:21:02;100574.44;;;7.40;100.00
54978;BME280;40873;47.522;19.106;2022-11-15T09:23:29;100562.09;;;7.42;100.00
54978;BME280;40873;47.522;19.106;2022-11-15T09:26:01;100575.28;;;7.61;100.00
54978;BME280;40873;47.522;19.106;2022-11-15T09:28:30;100562.00;;;7.64;100.00
54978;BME280;40873;47.522;19.106;2022-11-15T09:30:59;100571.81;;;7.61;100.00
54978;BME280;40873;47.522;19.106;2022-11-15T09:33:26;100567.25;;;7.64;100.00
54978;BME280;40873;47.522;19.106;2022-11-15T09:35:54;100553.34;;;7.62;100.00
54978;BME280;40873;47.522;19.106;2022-11-15T09:38:26;100561.88;;;7.67;100.00
54978;BME280;40873;47.522;19.106;2022-11-15T09:41:05;100556.28;;;7.75;100.00
54978;BME280;40873;47.522;19.106;2022-11-15T09:48:54;100552.03;;;7.73;100.00
54978;BME280;40873;47.522;19.106;2022-11-15T09:54:34;100554.59;;;7.74;100.00
54978;BME280;40873;47.522;19.106;2022-11-15T09:57:44;100552.06;;;7.71;100.00
54978;BME280;40873;47.522;19.106;2022-11-15T10:03:25;100547.16;;;7.63;100.00
54978;BME280;40873;47.522;19.106;2022-11-15T10:05:57;100548.81;;;7.66;100.00
54978;BME280;40873;47.522;19.106;2022-11-15T10:08:30;100538.69;;;7.58;100.00
54978;BME280;40873;47.522;19.106;2022-11-15T10:11:02;100541.34;;;7.57;100.00
54978;BME280;40873;47.522;19.106;2022-11-15T10:13:52;100530.72;;;7.60;100.00
54978;BME280;40873;47.522;19.106;2022-11-15T10:19:28;100531.38;;;7.65;100.00
54978;BME280;40873;47.522;19.106;2022-11-15T10:24:58;100509.28;;;7.69;100.00
54978;BME280;40873;47.522;19.106;2022-11-15T10:27:27;100511.41;;;7.61;100.00
54978;BME280;40873;47.522;19.106;2022-11-15T10:29:53;100510.66;;;7.59;100.00
54978;BME280;40873;47.522;19.106;2022-11-15T10:32:21;100506.59;;;7.52;100.00
54978;BME280;40873;47.522;19.106;2022-11-15T10:34:49;100507.94;;;7.60;100.00
54978;BME280;40873;47.522;19.106;2022-11-15T10:37:30;100510.09;;;7.51;100.00
54978;BME280;40873;47.522;19.106;2022-11-15T10:40:16;100497.88;;;7.51;100.00
54978;BME280;40873;47.522;19.106;2022-11-15T10:42:43;100504.09;;;7.49;100.00
54978;BME280;40873;47.522;19.106;2022-11-15T10:45:24;100497.78;;;7.53;100.00
54978;BME280;40873;47.522;19.106;2022-11-15T10:47:52;100481.03;;;7.55;100.00
54978;BME280;40873;47.522;19.106;2022-11-15T10:50:29;100473.94;;;7.57;100.00
54978;BME280;40873;47.522;19.106;2022-11-15T10:52:56;100466.69;;;7.62;100.00
54978;BME280;40873;47.522;19.106;2022-11-15T10:55:27;100476.06;;;7.68;100.00
54978;BME280;40873;47.522;19.106;2022-11-15T10:58:34;100476.16;;;7.66;100.00
54978;BME280;40873;47.522;19.106;2022-11-15T11:01:10;100466.34;;;7.70;100.00
54978;BME280;40873;47.522;19.106;2022-11-15T11:03:38;100460.03;;;7.74;100.00
54978;BME280;40873;47.522;19.106;2022-11-15T11:06:17;100454.91;;;7.71;100.00
54978;BME280;40873;47.522;19.106;2022-11-15T11:09:05;100448.59;;;7.75;100.00
54978;BME280;40873;47.522;19.106;2022-11-15T11:14:21;100452.16;;;7.74;100.00
54978;BME280;40873;47.522;19.106;2022-11-15T11:27:26;100437.72;;;8.02;100.00
54978;BME280;40873;47.522;19.106;2022-11-15T11:30:06;100426.56;;;7.96;100.00
54978;BME280;40873;47.522;19.106;2022-11-15T11:33:01;100435.72;;;8.07;100.00
54978;BME280;40873;47.522;19.106;2022-11-15T11:38:57;100430.50;;;8.05;100.00
54978;BME280;40873;47.522;19.106;2022-11-15T11:41:53;100424.19;;;8.09;100.00
54978;BME280;40873;47.522;19.106;2022-11-15T11:47:23;100412.28;;;8.02;100.00
54978;BME280;40873;47.522;19.106;2022-11-15T11:50:00;100409.78;;;7.82;100.00
54978;BME280;40873;47.522;19.106;2022-11-15T11:53:29;100407.84;;;7.85;100.00
54978;BME280;40873;47.522;19.106;2022-11-15T11:56:14;100407.06;;;7.83;100.00
54978;BME280;40873;47.522;19.106;2022-11-15T11:58:46;100408.44;;;8.09;100.00
54978;BME280;40873;47.522;19.106;2022-11-15T12:01:44;100398.97;;;7.88;100.00
54978;BME280;40873;47.522;19.106;2022-11-15T12:04:19;100390.31;;;7.86;100.00
54978;BME280;40873;47.522;19.106;2022-11-15T12:06:49;100390.16;;;7.89;100.00
54978;BME280;40873;47.522;19.106;2022-11-15T12:09:30;100381.72;;;7.82;100.00
54978;BME280;40873;47.522;19.106;2022-11-15T12:14:50;100378.06;;;8.04;100.00
54978;BME280;40873;47.522;19.106;2022-11-15T12:17:23;100373.63;;;7.87;100.00
54978;BME280;40873;47.522;19.106;2022-11-15T12:20:02;100376.88;;;7.92;100.00
54978;BME280;40873;47.522;19.106;2022-11-15T12:22:47;100361.06;;;7.93;100.00
54978;BME280;40873;47.522;19.106;2022-11-15T12:27:57;100355.00;;;7.91;100.00
54978;BME280;40873;47.522;19.106;2022-11-15T12:30:40;100356.78;;;7.91;100.00
54978;BME280;40873;47.522;19.106;2022-11-15T12:33:31;100363.28;;;8.01;100.00
54978;BME280;40873;47.522;19.106;2022-11-15T12:36:09;100355.78;;;8.11;100.00
54978;BME280;40873;47.522;19.106;2022-11-15T12:38:56;100348.69;;;7.95;100.00
54978;BME280;40873;47.522;19.106;2022-11-15T12:41:30;100346.34;;;7.89;100.00
54978;BME280;40873;47.522;19.106;2022-11-15T12:43:57;100357.38;;;7.79;100.00
54978;BME280;40873;47.522;19.106;2022-11-15T13:00:05;100325.47;;;7.69;100.00
54978;BME280;40873;47.522;19.106;2022-11-15T13:03:18;100333.00;;;7.58;100.00
54978;BME280;40873;47.522;19.106;2022-11-15T13:05:55;100329.78;;;7.53;100.00
54978;BME280;40873;47.522;19.106;2022-11-15T13:08:38;100324.72;;;7.48;100.00
54978;BME280;40873;47.522;19.106;2022-11-15T13:11:46;100314.88;;;7.53;100.00
54978;BME280;40873;47.522;19.106;2022-11-15T13:17:29;100326.22;;;7.54;100.00
54978;BME280;40873;47.522;19.106;2022-11-15T13:20:18;100320.41;;;7.47;100.00
54978;BME280;40873;47.522;19.106;2022-11-15T13:22:51;100329.31;;;7.62;100.00
54978;BME280;40873;47.522;19.106;2022-11-15T13:28:12;100321.16;;;7.68;100.00
54978;BME280;40873;47.522;19.106;2022-11-15T13:30:54;100321.22;;;7.66;100.00
54978;BME280;40873;47.522;19.106;2022-11-15T13:33:25;100311.31;;;7.72;100.00
54978;BME280;40873;47.522;19.106;2022-11-15T13:38:41;100301.75;;;7.70;100.00
54978;BME280;40873;47.522;19.106;2022-11-15T13:41:20;100305.00;;;7.76;100.00
54978;BME280;40873;47.522;19.106;2022-11-15T13:43:49;100304.06;;;7.77;100.00
54978;BME280;40873;47.522;19.106;2022-11-15T13:46:21;100303.41;;;7.73;100.00
54978;BME280;40873;47.522;19.106;2022-11-15T13:54:29;100297.47;;;7.87;100.00
54978;BME280;40873;47.522;19.106;2022-11-15T13:57:09;100279.75;;;7.90;100.00
54978;BME280;40873;47.522;19.106;2022-11-15T13:59:45;100265.16;;;7.85;100.00
54978;BME280;40873;47.522;19.106;2022-11-15T14:02:19;100274.13;;;7.81;100.00
54978;BME280;40873;47.522;19.106;2022-11-15T14:04:50;100265.16;;;7.67;100.00
54978;BME280;40873;47.522;19.106;2022-11-15T14:07:21;100270.41;;;7.67;100.00
54978;BME280;40873;47.522;19.106;2022-11-15T14:09:49;100272.28;;;7.65;100.00
54978;BME280;40873;47.522;19.106;2022-11-15T14:12:34;100273.25;;;7.63;100.00
54978;BME280;40873;47.522;19.106;2022-11-15T14:17:57;100275.31;;;7.56;100.00
54978;BME280;40873;47.522;19.106;2022-11-15T14:22:56;100265.84;;;7.54;100.00
54978;BME280;40873;47.522;19.106;2022-11-15T14:25:28;100255.63;;;7.48;100.00
54978;BME280;40873;47.522;19.106;2022-11-15T14:28:28;100256.66;;;7.62;100.00
54978;BME280;40873;47.522;19.106;2022-11-15T14:30:58;100252.16;;;7.47;100.00
54978;BME280;40873;47.522;19.106;2022-11-15T14:33:29;100249.53;;;7.47;100.00
54978;BME280;40873;47.522;19.106;2022-11-15T14:36:02;100250.59;;;7.43;100.00
54978;BME280;40873;47.522;19.106;2022-11-15T14:38:29;100255.72;;;7.46;100.00
54978;BME280;40873;47.522;19.106;2022-11-15T14:40:57;100240.34;;;7.38;100.00
54978;BME280;40873;47.522;19.106;2022-11-15T14:43:25;100231.53;;;7.39;100.00
54978;BME280;40873;47.522;19.106;2022-11-15T14:45:51;100230.78;;;7.37;100.00
54978;BME280;40873;47.522;19.106;2022-11-15T14:48:18;100234.63;;;7.30;100.00